createdAt,value
2023-05-05T00:00:35.767Z,95320.00
2023-05-05T00:01:35.864Z,95320.00
2023-05-05T00:02:35.934Z,95322.00
2023-05-05T00:03:36.180Z,95318.00
2023-05-05T00:04:36.054Z,95318.00
2023-05-05T00:05:36.108Z,95316.00
2023-05-05T00:06:36.166Z,95316.00
2023-05-05T00:07:36.232Z,95316.00
2023-05-05T00:08:36.300Z,95316.00
2023-05-05T00:09:36.365Z,95318.00
2023-05-05T00:10:36.398Z,95316.00
2023-05-05T00:11:36.485Z,95314.00
2023-05-05T00:12:36.574Z,95312.00
2023-05-05T00:13:36.600Z,95314.00
2023-05-05T00:14:36.665Z,95314.00
2023-05-05T00:15:36.759Z,95314.00
2023-05-05T00:16:36.846Z,95314.00
2023-05-05T00:17:36.899Z,95314.00
2023-05-05T00:18:36.908Z,95316.00
2023-05-05T00:19:37.003Z,95316.00
2023-05-05T00:20:37.037Z,95318.00
2023-05-05T00:21:37.073Z,95320.00
2023-05-05T00:22:37.170Z,95318.00
2023-05-05T00:23:37.196Z,95318.00
2023-05-05T00:24:37.259Z,95316.00
2023-05-05T00:25:37.365Z,95316.00
2023-05-05T00:26:37.391Z,95316.00
2023-05-05T00:27:39.463Z,95316.00
2023-05-05T00:28:37.456Z,95318.00
2023-05-05T00:29:37.448Z,95316.00
2023-05-05T00:30:37.608Z,95316.00
2023-05-05T00:31:37.431Z,95316.00
2023-05-05T00:32:37.466Z,95318.00
2023-05-05T00:33:37.448Z,95316.00
2023-05-05T00:34:37.411Z,95318.00
2023-05-05T00:35:37.403Z,95316.00
2023-05-05T00:36:37.431Z,95320.00
2023-05-05T00:37:37.416Z,95320.00
2023-05-05T00:38:37.385Z,95318.00
2023-05-05T00:39:37.362Z,95318.00
2023-05-05T00:40:37.396Z,95316.00
2023-05-05T00:41:37.355Z,95318.00
2023-05-05T00:42:37.378Z,95318.00
2023-05-05T00:43:37.374Z,95316.00
2023-05-05T00:44:37.356Z,95322.00
2023-05-05T00:45:37.368Z,95320.00
2023-05-05T00:46:37.405Z,95322.00
2023-05-05T00:47:37.329Z,95320.00
2023-05-05T00:48:37.336Z,95320.00
2023-05-05T00:49:37.425Z,95320.00
2023-05-05T00:50:37.361Z,95320.00
2023-05-05T00:51:37.307Z,95318.00
2023-05-05T00:52:37.316Z,95320.00
2023-05-05T00:53:37.295Z,95320.00
2023-05-05T00:54:37.304Z,95318.00
2023-05-05T00:55:37.292Z,95320.00
2023-05-05T00:56:37.285Z,95320.00
2023-05-05T00:57:37.273Z,95318.00
2023-05-05T00:58:37.261Z,95318.00
2023-05-05T00:59:37.262Z,95318.00
2023-05-05T01:00:37.279Z,95322.00
2023-05-05T01:01:37.433Z,95322.00
2023-05-05T01:02:37.515Z,95320.00
2023-05-05T01:03:37.588Z,95320.00
2023-05-05T01:04:37.541Z,95320.00
2023-05-05T01:05:37.628Z,95316.00
2023-05-05T01:06:37.666Z,95316.00
2023-05-05T01:07:37.782Z,95314.00
2023-05-05T01:08:37.818Z,95316.00
2023-05-05T01:09:37.843Z,95314.00
2023-05-05T01:10:37.932Z,95318.00
2023-05-05T01:11:37.997Z,95314.00
2023-05-05T01:12:38.052Z,95314.00
2023-05-05T01:13:38.127Z,95312.00
2023-05-05T01:14:38.168Z,95312.00
2023-05-05T01:15:38.230Z,95312.00
2023-05-05T01:16:38.363Z,95314.00
2023-05-05T01:17:38.429Z,95312.00
2023-05-05T01:18:38.436Z,95316.00
2023-05-05T01:19:38.547Z,95314.00
2023-05-05T01:20:38.541Z,95314.00
2023-05-05T01:21:38.633Z,95312.00
2023-05-05T01:22:38.669Z,95314.00
2023-05-05T01:23:38.767Z,95314.00
2023-05-05T01:24:38.789Z,95314.00
2023-05-05T01:25:38.871Z,95312.00
2023-05-05T01:26:38.950Z,95316.00
2023-05-05T01:27:39.021Z,95318.00
2023-05-05T01:28:39.082Z,95316.00
2023-05-05T01:29:39.145Z,95320.00
2023-05-05T01:30:39.216Z,95318.00
2023-05-05T01:31:39.276Z,95318.00
2023-05-05T01:32:39.347Z,95316.00
2023-05-05T01:33:39.379Z,95316.00
2023-05-05T01:34:39.439Z,95320.00
2023-05-05T01:35:39.558Z,95320.00
2023-05-05T01:36:39.592Z,95320.00
2023-05-05T01:37:39.637Z,95322.00
2023-05-05T01:38:39.712Z,95320.00
2023-05-05T01:39:39.760Z,95322.00
2023-05-05T01:40:39.850Z,95322.00
2023-05-05T01:41:39.907Z,95322.00
2023-05-05T01:42:39.978Z,95322.00
2023-05-05T01:43:40.000Z,95324.00
2023-05-05T01:44:40.078Z,95324.00
2023-05-05T01:45:40.170Z,95324.00
2023-05-05T01:46:40.198Z,95324.00
2023-05-05T01:47:40.318Z,95324.00
2023-05-05T01:48:42.243Z,95326.00
2023-05-05T01:49:40.412Z,95328.00
2023-05-05T01:50:40.429Z,95326.00
2023-05-05T01:51:40.534Z,95326.00
2023-05-05T01:52:40.580Z,95324.00
2023-05-05T01:53:40.624Z,95324.00
2023-05-05T01:54:40.690Z,95322.00
2023-05-05T01:55:40.801Z,95324.00
2023-05-05T01:56:40.825Z,95326.00
2023-05-05T01:57:40.925Z,95326.00
2023-05-05T01:58:40.965Z,95330.00
2023-05-05T01:59:41.018Z,95330.00
2023-05-05T02:00:41.095Z,95332.00
2023-05-05T02:01:41.269Z,95332.00
2023-05-05T02:02:41.269Z,95332.00
2023-05-05T02:03:41.282Z,95330.00
2023-05-05T02:04:41.308Z,95326.00
2023-05-05T02:05:41.387Z,95328.00
2023-05-05T02:06:41.469Z,95328.00
2023-05-05T02:07:41.540Z,95328.00
2023-05-05T02:08:41.571Z,95332.00
2023-05-05T02:09:41.650Z,95334.00
2023-05-05T02:10:41.735Z,95334.00
2023-05-05T02:11:41.811Z,95332.00
2023-05-05T02:12:41.857Z,95334.00
2023-05-05T02:13:42.038Z,95334.00
2023-05-05T02:14:41.963Z,95336.00
2023-05-05T02:15:42.064Z,95336.00
2023-05-05T02:16:42.092Z,95336.00
2023-05-05T02:17:42.172Z,95338.00
2023-05-05T02:18:42.227Z,95338.00
2023-05-05T02:19:42.258Z,95336.00
2023-05-05T02:20:42.359Z,95338.00
2023-05-05T02:21:42.414Z,95340.00
2023-05-05T02:22:42.488Z,95344.00
2023-05-05T02:23:42.543Z,95340.00
2023-05-05T02:24:42.596Z,95340.00
2023-05-05T02:25:42.676Z,95338.00
2023-05-05T02:26:42.741Z,95340.00
2023-05-05T02:27:42.765Z,95342.00
2023-05-05T02:28:42.822Z,95340.00
2023-05-05T02:29:42.893Z,95342.00
2023-05-05T02:30:42.990Z,95344.00
2023-05-05T02:31:43.114Z,95342.00
2023-05-05T02:32:43.147Z,95344.00
2023-05-05T02:33:43.203Z,95342.00
2023-05-05T02:34:43.235Z,95342.00
2023-05-05T02:35:43.286Z,95342.00
2023-05-05T02:36:43.386Z,95342.00
2023-05-05T02:37:43.400Z,95340.00
2023-05-05T02:38:43.484Z,95344.00
2023-05-05T02:39:43.523Z,95346.00
2023-05-05T02:40:43.582Z,95348.00
2023-05-05T02:41:43.639Z,95348.00
2023-05-05T02:42:43.713Z,95348.00
2023-05-05T02:43:43.753Z,95344.00
2023-05-05T02:44:43.798Z,95346.00
2023-05-05T02:45:43.842Z,95344.00
2023-05-05T02:46:43.968Z,95344.00
2023-05-05T02:47:44.001Z,95346.00
2023-05-05T02:48:44.050Z,95348.00
2023-05-05T02:49:44.115Z,95346.00
2023-05-05T02:50:44.192Z,95348.00
2023-05-05T02:51:44.268Z,95346.00
2023-05-05T02:52:44.317Z,95350.00
2023-05-05T02:53:44.383Z,95350.00
2023-05-05T02:54:44.428Z,95350.00
2023-05-05T02:55:44.462Z,95350.00
2023-05-05T02:56:44.568Z,95348.00
2023-05-05T02:57:44.628Z,95348.00
2023-05-05T02:58:44.692Z,95348.00
2023-05-05T02:59:44.733Z,95346.00
2023-05-05T03:00:44.817Z,95348.00
2023-05-05T03:01:44.910Z,95348.00
2023-05-05T03:02:44.994Z,95348.00
2023-05-05T03:03:45.097Z,95350.00
2023-05-05T03:04:45.083Z,95350.00
2023-05-05T03:05:45.136Z,95350.00
2023-05-05T03:06:45.202Z,95352.00
2023-05-05T03:07:45.235Z,95350.00
2023-05-05T03:08:45.331Z,95350.00
2023-05-05T03:09:45.380Z,95352.00
2023-05-05T03:10:45.431Z,95348.00
2023-05-05T03:11:45.507Z,95350.00
2023-05-05T03:12:45.583Z,95346.00
2023-05-05T03:13:45.624Z,95348.00
2023-05-05T03:14:45.664Z,95348.00
2023-05-05T03:15:45.690Z,95348.00
2023-05-05T03:16:45.949Z,95350.00
2023-05-05T03:17:45.845Z,95348.00
2023-05-05T03:18:45.861Z,95352.00
2023-05-05T03:19:45.965Z,95352.00
2023-05-05T03:20:46.008Z,95353.00
2023-05-05T03:21:46.044Z,95352.00
2023-05-05T03:22:46.104Z,95352.00
2023-05-05T03:23:46.209Z,95348.00
2023-05-05T03:24:46.262Z,95350.00
2023-05-05T03:25:46.313Z,95348.00
2023-05-05T03:26:46.367Z,95348.00
2023-05-05T03:27:46.438Z,95346.00
2023-05-05T03:28:46.482Z,95348.00
2023-05-05T03:29:46.536Z,95346.00
2023-05-05T03:30:46.597Z,95350.00
2023-05-05T03:31:46.675Z,95350.00
2023-05-05T03:32:46.724Z,95352.00
2023-05-05T03:33:46.764Z,95355.00
2023-05-05T03:34:46.823Z,95357.00
2023-05-05T03:35:46.895Z,95353.00
2023-05-05T03:36:46.931Z,95353.00
2023-05-05T03:37:46.979Z,95353.00
2023-05-05T03:38:47.027Z,95352.00
2023-05-05T03:39:47.090Z,95352.00
2023-05-05T03:40:47.136Z,95352.00
2023-05-05T03:41:47.196Z,95353.00
2023-05-05T03:42:47.219Z,95353.00
2023-05-05T03:43:47.253Z,95353.00
2023-05-05T03:44:47.327Z,95353.00
2023-05-05T03:45:47.420Z,95355.00
2023-05-05T03:46:47.419Z,95353.00
2023-05-05T03:47:47.487Z,95353.00
2023-05-05T03:48:47.529Z,95353.00
2023-05-05T03:49:47.609Z,95353.00
2023-05-05T03:50:47.638Z,95352.00
2023-05-05T03:51:47.682Z,95352.00
2023-05-05T03:52:47.745Z,95350.00
2023-05-05T03:53:47.797Z,95350.00
2023-05-05T03:54:47.859Z,95346.00
2023-05-05T03:55:47.897Z,95348.00
2023-05-05T03:56:47.910Z,95344.00
2023-05-05T03:57:47.984Z,95348.00
2023-05-05T03:58:48.065Z,95346.00
2023-05-05T03:59:48.088Z,95346.00
2023-05-05T04:00:48.110Z,95346.00
2023-05-05T04:01:48.179Z,95342.00
2023-05-05T04:02:48.349Z,95344.00
2023-05-05T04:03:48.333Z,95346.00
2023-05-05T04:04:48.298Z,95346.00
2023-05-05T04:05:48.344Z,95346.00
2023-05-05T04:06:48.389Z,95348.00
2023-05-05T04:07:48.460Z,95346.00
2023-05-05T04:08:48.485Z,95346.00
2023-05-05T04:09:48.510Z,95344.00
2023-05-05T04:10:48.604Z,95346.00
2023-05-05T04:11:48.666Z,95342.00
2023-05-05T04:12:48.770Z,95346.00
2023-05-05T04:13:48.741Z,95344.00
2023-05-05T04:14:48.798Z,95350.00
2023-05-05T04:15:48.874Z,95352.00
2023-05-05T04:16:48.900Z,95352.00
2023-05-05T04:17:48.974Z,95352.00
2023-05-05T04:18:49.010Z,95352.00
2023-05-05T04:19:49.041Z,95352.00
2023-05-05T04:20:49.108Z,95353.00
2023-05-05T04:21:49.135Z,95352.00
2023-05-05T04:22:50.675Z,95353.00
2023-05-05T04:23:49.176Z,95355.00
2023-05-05T04:24:49.174Z,95353.00
2023-05-05T04:25:49.151Z,95352.00
2023-05-05T04:26:49.163Z,95350.00
2023-05-05T04:27:49.128Z,95348.00
2023-05-05T04:28:49.114Z,95352.00
2023-05-05T04:29:49.118Z,95350.00
2023-05-05T04:30:49.132Z,95353.00
2023-05-05T04:31:49.188Z,95353.00
2023-05-05T04:32:49.142Z,95355.00
2023-05-05T04:33:49.097Z,95357.00
2023-05-05T04:34:49.075Z,95357.00
2023-05-05T04:35:49.099Z,95359.00
2023-05-05T04:36:49.080Z,95359.00
2023-05-05T04:37:49.098Z,95359.00
2023-05-05T04:38:49.112Z,95359.00
2023-05-05T04:39:49.079Z,95361.00
2023-05-05T04:40:49.067Z,95361.00
2023-05-05T04:41:49.029Z,95363.00
2023-05-05T04:42:49.061Z,95363.00
2023-05-05T04:43:49.040Z,95365.00
2023-05-05T04:44:49.059Z,95365.00
2023-05-05T04:45:49.023Z,95367.00
2023-05-05T04:46:49.112Z,95365.00
2023-05-05T04:47:49.052Z,95369.00
2023-05-05T04:48:49.025Z,95371.00
2023-05-05T04:49:49.013Z,95367.00
2023-05-05T04:50:49.011Z,95369.00
2023-05-05T04:51:48.986Z,95369.00
2023-05-05T04:52:50.294Z,95369.00
2023-05-05T04:53:48.981Z,95369.00
2023-05-05T04:54:48.980Z,95365.00
2023-05-05T04:55:48.970Z,95365.00
2023-05-05T04:56:48.954Z,95369.00
2023-05-05T04:57:48.972Z,95371.00
2023-05-05T04:58:48.939Z,95371.00
2023-05-05T04:59:48.955Z,95375.00
2023-05-05T05:00:55.921Z,95373.00
2023-05-05T05:01:48.959Z,95375.00
2023-05-05T05:02:49.029Z,95375.00
2023-05-05T05:03:48.928Z,95379.00
2023-05-05T05:04:48.928Z,95379.00
2023-05-05T05:05:48.885Z,95379.00
2023-05-05T05:06:48.891Z,95375.00
2023-05-05T05:07:48.912Z,95375.00
2023-05-05T05:08:48.880Z,95375.00
2023-05-05T05:09:48.857Z,95377.00
2023-05-05T05:10:48.870Z,95377.00
2023-05-05T05:11:48.881Z,95379.00
2023-05-05T05:12:48.920Z,95381.00
2023-05-05T05:13:48.880Z,95385.00
2023-05-05T05:14:48.857Z,95383.00
2023-05-05T05:15:48.851Z,95381.00
2023-05-05T05:16:48.861Z,95383.00
2023-05-05T05:17:48.924Z,95383.00
2023-05-05T05:18:48.808Z,95379.00
2023-05-05T05:19:48.823Z,95377.00
2023-05-05T05:20:48.829Z,95379.00
2023-05-05T05:21:48.829Z,95377.00
2023-05-05T05:22:48.804Z,95381.00
2023-05-05T05:23:48.779Z,95381.00
2023-05-05T05:24:48.790Z,95381.00
2023-05-05T05:25:48.815Z,95381.00
2023-05-05T05:26:48.766Z,95381.00
2023-05-05T05:27:55.310Z,95377.00
2023-05-05T05:28:49.770Z,95381.00
2023-05-05T05:29:48.768Z,95379.00
2023-05-05T05:30:48.758Z,95375.00
2023-05-05T05:31:49.243Z,95377.00
2023-05-05T05:32:48.794Z,95377.00
2023-05-05T05:33:48.757Z,95379.00
2023-05-05T05:34:48.758Z,95379.00
2023-05-05T05:35:48.778Z,95379.00
2023-05-05T05:36:49.255Z,95381.00
2023-05-05T05:37:48.771Z,95379.00
2023-05-05T05:38:48.726Z,95377.00
2023-05-05T05:39:48.785Z,95383.00
2023-05-05T05:40:48.833Z,95379.00
2023-05-05T05:41:49.201Z,95381.00
2023-05-05T05:42:49.021Z,95385.00
2023-05-05T05:43:48.999Z,95385.00
2023-05-05T05:44:49.027Z,95385.00
2023-05-05T05:45:49.060Z,95381.00
2023-05-05T05:46:56.232Z,95383.00
2023-05-05T05:47:49.079Z,95381.00
2023-05-05T05:48:49.014Z,95381.00
2023-05-05T05:49:49.064Z,95383.00
2023-05-05T05:50:49.035Z,95383.00
2023-05-05T05:51:49.025Z,95385.00
2023-05-05T05:52:49.233Z,95385.00
2023-05-05T05:53:48.995Z,95381.00
2023-05-05T05:54:48.965Z,95385.00
2023-05-05T05:55:48.968Z,95383.00
2023-05-05T05:56:48.972Z,95381.00
2023-05-05T05:57:49.226Z,95381.00
2023-05-05T05:58:48.968Z,95381.00
2023-05-05T05:59:48.981Z,95383.00
2023-05-05T06:00:48.983Z,95385.00
2023-05-05T06:01:48.944Z,95385.00
2023-05-05T06:02:49.032Z,95385.00
2023-05-05T06:03:49.008Z,95383.00
2023-05-05T06:04:48.931Z,95383.00
2023-05-05T06:05:48.908Z,95385.00
2023-05-05T06:06:48.919Z,95385.00
2023-05-05T06:07:48.932Z,95385.00
2023-05-05T06:08:48.886Z,95381.00
2023-05-05T06:09:48.910Z,95381.00
2023-05-05T06:10:48.912Z,95381.00
2023-05-05T06:11:48.912Z,95381.00
2023-05-05T06:12:49.268Z,95381.00
2023-05-05T06:13:48.854Z,95383.00
2023-05-05T06:14:48.857Z,95387.00
2023-05-05T06:15:48.910Z,95385.00
2023-05-05T06:16:48.942Z,95385.00
2023-05-05T06:17:48.999Z,95381.00
2023-05-05T06:18:48.989Z,95379.00
2023-05-05T06:19:49.039Z,95379.00
2023-05-05T06:20:49.063Z,95379.00
2023-05-05T06:21:49.083Z,95379.00
2023-05-05T06:22:49.108Z,95377.00
2023-05-05T06:23:49.143Z,95379.00
2023-05-05T06:24:49.149Z,95375.00
2023-05-05T06:25:49.166Z,95377.00
2023-05-05T06:26:49.215Z,95379.00
2023-05-05T06:27:49.238Z,95377.00
2023-05-05T06:28:49.221Z,95379.00
2023-05-05T06:29:49.234Z,95375.00
2023-05-05T06:30:49.264Z,95377.00
2023-05-05T06:31:49.374Z,95377.00
2023-05-05T06:32:49.369Z,95371.00
2023-05-05T06:33:49.297Z,95373.00
2023-05-05T06:34:49.324Z,95371.00
2023-05-05T06:35:49.349Z,95367.00
2023-05-05T06:36:49.377Z,95367.00
2023-05-05T06:37:49.761Z,95365.00
2023-05-05T06:38:49.450Z,95363.00
2023-05-05T06:39:49.438Z,95365.00
2023-05-05T06:40:49.459Z,95363.00
2023-05-05T06:41:49.464Z,95361.00
2023-05-05T06:42:49.545Z,95359.00
2023-05-05T06:43:49.537Z,95357.00
2023-05-05T06:44:49.570Z,95355.00
2023-05-05T06:45:49.602Z,95357.00
2023-05-05T06:46:49.630Z,95355.00
2023-05-05T06:47:49.854Z,95353.00
2023-05-05T06:48:49.599Z,95355.00
2023-05-05T06:49:49.645Z,95355.00
2023-05-05T06:50:49.634Z,95353.00
2023-05-05T06:51:49.651Z,95352.00
2023-05-05T06:52:49.681Z,95352.00
2023-05-05T06:53:49.685Z,95352.00
2023-05-05T06:54:49.729Z,95348.00
2023-05-05T06:55:49.735Z,95348.00
2023-05-05T06:56:49.765Z,95350.00
2023-05-05T06:57:50.265Z,95350.00
2023-05-05T06:58:49.814Z,95348.00
2023-05-05T06:59:49.911Z,95350.00
2023-05-05T07:00:49.922Z,95350.00
2023-05-05T07:01:49.915Z,95352.00
2023-05-05T07:02:50.004Z,95348.00
2023-05-05T07:03:50.014Z,95350.00
2023-05-05T07:04:50.025Z,95350.00
2023-05-05T07:05:50.180Z,95350.00
2023-05-05T07:06:50.086Z,95346.00
2023-05-05T07:07:50.159Z,95344.00
2023-05-05T07:08:50.199Z,95340.00
2023-05-05T07:09:50.229Z,95342.00
2023-05-05T07:10:50.335Z,95340.00
2023-05-05T07:11:50.315Z,95338.00
2023-05-05T07:12:51.331Z,95338.00
2023-05-05T07:13:50.410Z,95336.00
2023-05-05T07:14:50.431Z,95336.00
2023-05-05T07:15:50.660Z,95336.00
2023-05-05T07:16:50.567Z,95334.00
2023-05-05T07:17:50.622Z,95336.00
2023-05-05T07:18:50.609Z,95330.00
2023-05-05T07:19:50.641Z,95328.00
2023-05-05T07:20:50.755Z,95328.00
2023-05-05T07:21:50.745Z,95326.00
2023-05-05T07:22:50.792Z,95322.00
2023-05-05T07:23:50.883Z,95322.00
2023-05-05T07:24:51.728Z,95326.00
2023-05-05T07:25:50.939Z,95324.00
2023-05-05T07:26:51.008Z,95320.00
2023-05-05T07:27:51.058Z,95320.00
2023-05-05T07:28:51.096Z,95318.00
2023-05-05T07:29:51.126Z,95320.00
2023-05-05T07:30:51.210Z,95322.00
2023-05-05T07:31:51.508Z,95324.00
2023-05-05T07:32:51.434Z,95320.00
2023-05-05T07:33:51.323Z,95318.00
2023-05-05T07:34:51.356Z,95316.00
2023-05-05T07:35:51.470Z,95312.00
2023-05-05T07:36:51.431Z,95316.00
2023-05-05T07:37:51.433Z,95316.00
2023-05-05T07:38:51.458Z,95316.00
2023-05-05T07:39:51.490Z,95314.00
2023-05-05T07:40:51.525Z,95312.00
2023-05-05T07:41:51.545Z,95308.00
2023-05-05T07:42:51.548Z,95308.00
2023-05-05T07:43:51.548Z,95308.00
2023-05-05T07:44:51.557Z,95305.00
2023-05-05T07:45:51.599Z,95303.00
2023-05-05T07:46:51.588Z,95301.00
2023-05-05T07:47:51.897Z,95305.00
2023-05-05T07:48:51.634Z,95299.00
2023-05-05T07:49:51.667Z,95299.00
2023-05-05T07:50:51.769Z,95301.00
2023-05-05T07:51:51.829Z,95293.00
2023-05-05T07:52:59.358Z,95291.00
2023-05-05T07:53:52.859Z,95291.00
2023-05-05T07:54:51.890Z,95285.00
2023-05-05T07:55:51.847Z,95285.00
2023-05-05T07:56:51.851Z,95283.00
2023-05-05T07:57:51.898Z,95281.00
2023-05-05T07:58:51.943Z,95285.00
2023-05-05T07:59:51.966Z,95279.00
2023-05-05T08:00:51.986Z,95277.00
2023-05-05T08:01:54.341Z,95277.00
2023-05-05T08:02:52.086Z,95277.00
2023-05-05T08:03:52.268Z,95281.00
2023-05-05T08:04:52.041Z,95279.00
2023-05-05T08:05:52.029Z,95281.00
2023-05-05T08:06:52.044Z,95281.00
2023-05-05T08:07:52.050Z,95279.00
2023-05-05T08:08:52.000Z,95279.00
2023-05-05T08:09:52.024Z,95277.00
2023-05-05T08:10:51.985Z,95277.00
2023-05-05T08:11:51.995Z,95275.00
2023-05-05T08:12:52.047Z,95275.00
2023-05-05T08:13:51.997Z,95271.00
2023-05-05T08:14:51.977Z,95273.00
2023-05-05T08:15:51.969Z,95271.00
2023-05-05T08:16:51.977Z,95269.00
2023-05-05T08:17:52.802Z,95269.00
2023-05-05T08:18:51.936Z,95267.00
2023-05-05T08:19:52.118Z,95267.00
2023-05-05T08:20:51.912Z,95269.00
2023-05-05T08:21:51.901Z,95265.00
2023-05-05T08:22:51.894Z,95263.00
2023-05-05T08:23:51.904Z,95263.00
2023-05-05T08:24:51.911Z,95263.00
2023-05-05T08:25:51.912Z,95261.00
2023-05-05T08:26:51.904Z,95261.00
2023-05-05T08:27:51.908Z,95259.00
2023-05-05T08:28:51.882Z,95259.00
2023-05-05T08:29:51.855Z,95256.00
2023-05-05T08:30:51.848Z,95256.00
2023-05-05T08:31:51.957Z,95252.00
2023-05-05T08:32:52.332Z,95254.00
2023-05-05T08:33:51.837Z,95254.00
2023-05-05T08:34:51.849Z,95248.00
2023-05-05T08:35:51.899Z,95248.00
2023-05-05T08:36:51.822Z,95246.00
2023-05-05T08:37:52.274Z,95244.00
2023-05-05T08:38:51.838Z,95242.00
2023-05-05T08:39:51.880Z,95240.00
2023-05-05T08:40:51.936Z,95240.00
2023-05-05T08:41:52.010Z,95236.00
2023-05-05T08:42:52.303Z,95234.00
2023-05-05T08:43:52.119Z,95234.00
2023-05-05T08:44:52.154Z,95234.00
2023-05-05T08:45:52.195Z,95230.00
2023-05-05T08:46:52.271Z,95230.00
2023-05-05T08:47:52.372Z,95226.00
2023-05-05T08:48:52.349Z,95224.00
2023-05-05T08:49:52.400Z,95224.00
2023-05-05T08:50:52.491Z,95222.00
2023-05-05T08:51:52.517Z,95222.00
2023-05-05T08:52:52.814Z,95222.00
2023-05-05T08:53:52.591Z,95220.00
2023-05-05T08:54:52.654Z,95222.00
2023-05-05T08:55:52.704Z,95222.00
2023-05-05T08:56:52.735Z,95218.00
2023-05-05T08:57:52.817Z,95220.00
2023-05-05T08:58:52.840Z,95220.00
2023-05-05T08:59:52.879Z,95214.00
2023-05-05T09:00:52.953Z,95214.00
2023-05-05T09:01:52.896Z,95216.00
2023-05-05T09:02:53.384Z,95212.00
2023-05-05T09:03:52.846Z,95212.00
2023-05-05T09:04:52.828Z,95212.00
2023-05-05T09:05:52.843Z,95209.00
2023-05-05T09:06:52.837Z,95207.00
2023-05-05T09:07:52.898Z,95205.00
2023-05-05T09:08:52.836Z,95207.00
2023-05-05T09:09:52.796Z,95205.00
2023-05-05T09:10:52.779Z,95205.00
2023-05-05T09:11:52.802Z,95199.00
2023-05-05T09:12:52.835Z,95203.00
2023-05-05T09:13:52.830Z,95205.00
2023-05-05T09:14:52.819Z,95201.00
2023-05-05T09:15:52.771Z,95199.00
2023-05-05T09:16:52.794Z,95195.00
2023-05-05T09:17:52.783Z,95195.00
2023-05-05T09:18:52.824Z,95195.00
2023-05-05T09:19:52.781Z,95193.00
2023-05-05T09:20:52.779Z,95191.00
2023-05-05T09:21:52.788Z,95187.00
2023-05-05T09:22:52.872Z,95189.00
2023-05-05T09:23:52.976Z,95181.00
2023-05-05T09:24:52.867Z,95185.00
2023-05-05T09:25:52.945Z,95183.00
2023-05-05T09:26:52.968Z,95179.00
2023-05-05T09:27:52.964Z,95179.00
2023-05-05T09:28:53.349Z,95175.00
2023-05-05T09:29:53.009Z,95175.00
2023-05-05T09:30:53.043Z,95175.00
2023-05-05T09:31:53.107Z,95171.00
2023-05-05T09:32:53.214Z,95171.00
2023-05-05T09:33:53.344Z,95169.00
2023-05-05T09:34:53.223Z,95167.00
2023-05-05T09:35:53.159Z,95165.00
2023-05-05T09:36:53.204Z,95165.00
2023-05-05T09:37:53.215Z,95159.00
2023-05-05T09:38:53.254Z,95163.00
2023-05-05T09:39:53.326Z,95163.00
2023-05-05T09:40:53.304Z,95161.00
2023-05-05T09:41:53.342Z,95161.00
2023-05-05T09:42:53.405Z,95157.00
2023-05-05T09:43:53.827Z,95148.00
2023-05-05T09:44:53.460Z,95150.00
2023-05-05T09:45:53.503Z,95148.00
2023-05-05T09:46:53.629Z,95148.00
2023-05-05T09:48:53.835Z,95142.00
2023-05-05T09:49:53.707Z,95142.00
2023-05-05T09:50:53.763Z,95142.00
2023-05-05T09:51:53.817Z,95138.00
2023-05-05T09:52:53.829Z,95138.00
2023-05-05T09:53:53.865Z,95138.00
2023-05-05T09:54:53.914Z,95134.00
2023-05-05T09:55:54.023Z,95136.00
2023-05-05T09:56:54.020Z,95136.00
2023-05-05T09:57:54.058Z,95134.00
2023-05-05T09:58:54.090Z,95136.00
2023-05-05T09:59:54.143Z,95134.00
2023-05-05T10:00:54.140Z,95134.00
2023-05-05T10:01:54.268Z,95134.00
2023-05-05T10:02:54.218Z,95132.00
2023-05-05T10:03:54.248Z,95128.00
2023-05-05T10:04:54.280Z,95126.00
2023-05-05T10:05:54.276Z,95126.00
2023-05-05T10:06:54.273Z,95124.00
2023-05-05T10:07:54.289Z,95126.00
2023-05-05T10:08:54.293Z,95128.00
2023-05-05T10:09:54.306Z,95124.00
2023-05-05T10:10:54.303Z,95122.00
2023-05-05T10:11:54.364Z,95118.00
2023-05-05T10:12:54.324Z,95116.00
2023-05-05T10:13:54.280Z,95120.00
2023-05-05T10:14:54.279Z,95112.00
2023-05-05T10:15:54.354Z,95111.00
2023-05-05T10:16:54.300Z,95111.00
2023-05-05T10:18:05.297Z,95109.00
2023-05-05T10:18:55.327Z,95103.00
2023-05-05T10:19:54.297Z,95107.00
2023-05-05T10:20:54.276Z,95101.00
2023-05-05T10:21:54.263Z,95101.00
2023-05-05T10:22:54.257Z,95101.00
2023-05-05T10:23:54.244Z,95099.00
2023-05-05T10:24:54.256Z,95101.00
2023-05-05T10:25:54.249Z,95097.00
2023-05-05T10:26:54.201Z,95101.00
2023-05-05T10:27:54.333Z,95101.00
2023-05-05T10:28:54.236Z,95095.00
2023-05-05T10:29:54.219Z,95095.00
2023-05-05T10:30:54.187Z,95093.00
2023-05-05T10:31:54.323Z,95091.00
2023-05-05T10:33:00.873Z,95089.00
2023-05-05T10:33:55.265Z,95085.00
2023-05-05T10:34:54.199Z,95087.00
2023-05-05T10:35:54.167Z,95081.00
2023-05-05T10:36:54.163Z,95081.00
2023-05-05T10:37:54.169Z,95079.00
2023-05-05T10:38:54.371Z,95075.00
2023-05-05T10:39:54.145Z,95073.00
2023-05-05T10:40:54.154Z,95065.00
2023-05-05T10:41:54.130Z,95065.00
2023-05-05T10:42:54.213Z,95063.00
2023-05-05T10:43:54.516Z,95061.00
2023-05-05T10:44:54.190Z,95063.00
2023-05-05T10:45:54.204Z,95057.00
2023-05-05T10:46:54.093Z,95054.00
2023-05-05T10:47:54.158Z,95056.00
2023-05-05T10:48:54.414Z,95054.00
2023-05-05T10:49:54.102Z,95050.00
2023-05-05T10:50:54.089Z,95046.00
2023-05-05T10:51:54.080Z,95046.00
2023-05-05T10:52:54.069Z,95046.00
2023-05-05T10:53:54.417Z,95046.00
2023-05-05T10:54:54.057Z,95044.00
2023-05-05T10:55:54.068Z,95042.00
2023-05-05T10:56:54.076Z,95040.00
2023-05-05T10:57:54.020Z,95038.00
2023-05-05T10:59:00.208Z,95036.00
2023-05-05T10:59:55.013Z,95038.00
2023-05-05T11:00:54.018Z,95032.00
2023-05-05T11:01:54.022Z,95034.00
2023-05-05T11:02:54.040Z,95030.00
2023-05-05T11:03:54.048Z,95028.00
2023-05-05T11:04:53.985Z,95026.00
2023-05-05T11:05:53.981Z,95022.00
2023-05-05T11:06:53.995Z,95020.00
2023-05-05T11:07:53.987Z,95020.00
2023-05-05T11:08:53.966Z,95020.00
2023-05-05T11:09:53.966Z,95020.00
2023-05-05T11:10:53.982Z,95014.00
2023-05-05T11:11:53.940Z,95011.00
2023-05-05T11:12:53.954Z,95011.00
2023-05-05T11:13:53.955Z,95005.00
2023-05-05T11:14:53.952Z,95003.00
2023-05-05T11:15:54.138Z,95001.00
2023-05-05T11:16:53.993Z,94999.00
2023-05-05T11:17:54.052Z,94995.00
2023-05-05T11:18:53.905Z,94995.00
2023-05-05T11:19:54.420Z,94991.00
2023-05-05T11:20:53.890Z,94989.00
2023-05-05T11:21:53.904Z,94989.00
2023-05-05T11:22:53.852Z,94987.00
2023-05-05T11:23:53.879Z,94987.00
2023-05-05T11:24:53.891Z,94987.00
2023-05-05T11:25:53.852Z,94985.00
2023-05-05T11:26:53.866Z,94983.00
2023-05-05T11:27:53.836Z,94979.00
2023-05-05T11:28:53.833Z,94981.00
2023-05-05T11:29:53.902Z,94979.00
2023-05-05T11:30:53.893Z,94977.00
2023-05-05T11:31:53.931Z,94979.00
2023-05-05T11:32:53.817Z,94979.00
2023-05-05T11:33:53.800Z,94975.00
2023-05-05T11:34:53.867Z,94969.00
2023-05-05T11:35:53.820Z,94967.00
2023-05-05T11:36:53.807Z,94965.00
2023-05-05T11:37:53.786Z,94965.00
2023-05-05T11:38:53.763Z,94962.00
2023-05-05T11:39:53.772Z,94962.00
2023-05-05T11:40:53.780Z,94958.00
2023-05-05T11:41:53.755Z,94956.00
2023-05-05T11:42:53.765Z,94958.00
2023-05-05T11:43:53.738Z,94954.00
2023-05-05T11:44:53.734Z,94954.00
2023-05-05T11:45:53.737Z,94952.00